createdAt,value
2019-05-28T00:00:02.417Z,12.70
2019-05-28T00:02:28.282Z,12.60
2019-05-28T00:04:57.195Z,12.60
2019-05-28T00:07:25.999Z,12.50
2019-05-28T00:09:54.844Z,12.50
2019-05-28T00:12:23.651Z,12.60
2019-05-28T00:14:52.504Z,12.50
2019-05-28T00:17:21.307Z,12.50
2019-05-28T00:19:50.130Z,12.50
2019-05-28T00:22:19.012Z,12.40
2019-05-28T00:24:47.919Z,12.40
2019-05-28T00:27:16.707Z,12.40
2019-05-28T00:29:45.529Z,12.40
2019-05-28T00:32:14.346Z,12.40
2019-05-28T00:34:43.224Z,12.40
2019-05-28T00:37:12.048Z,12.40
2019-05-28T00:39:40.880Z,12.30
2019-05-28T00:42:10.409Z,12.40
2019-05-28T00:44:39.251Z,12.40
2019-05-28T00:47:08.223Z,12.50
2019-05-28T00:49:37.122Z,12.40
2019-05-28T00:52:05.999Z,12.40
2019-05-28T00:54:34.820Z,12.50
2019-05-28T00:57:04.097Z,12.50
2019-05-28T00:59:33.864Z,12.50
2019-05-28T01:02:02.672Z,12.50
2019-05-28T01:04:31.605Z,12.50
2019-05-28T01:07:03.443Z,12.50
2019-05-28T01:09:32.283Z,12.50
2019-05-28T01:12:01.372Z,12.40
2019-05-28T01:14:30.248Z,12.40
2019-05-28T01:16:59.285Z,12.40
2019-05-28T01:19:28.104Z,12.30
2019-05-28T01:21:57.077Z,12.30
2019-05-28T01:24:26.073Z,12.30
2019-05-28T01:26:54.927Z,12.30
2019-05-28T01:29:23.730Z,12.20
2019-05-28T01:31:52.551Z,12.10
2019-05-28T01:34:21.375Z,12.10
2019-05-28T01:36:50.271Z,12.10
2019-05-28T01:39:19.075Z,12.00
2019-05-28T01:41:47.903Z,12.10
2019-05-28T01:44:16.717Z,12.00
2019-05-28T01:46:45.546Z,11.90
2019-05-28T01:49:14.437Z,11.90
2019-05-28T01:51:43.336Z,11.90
2019-05-28T01:54:12.136Z,11.90
2019-05-28T01:56:40.975Z,11.80
2019-05-28T01:59:09.886Z,11.70
2019-05-28T02:01:38.787Z,11.70
2019-05-28T02:04:07.660Z,11.60
2019-05-28T02:06:36.488Z,11.50
2019-05-28T02:09:07.187Z,11.50
2019-05-28T02:11:36.090Z,11.40
2019-05-28T02:14:05.038Z,11.30
2019-05-28T02:16:33.944Z,11.30
2019-05-28T02:19:02.824Z,11.30
2019-05-28T02:21:31.664Z,11.30
2019-05-28T02:24:00.470Z,11.20
2019-05-28T02:26:29.442Z,11.20
2019-05-28T02:28:58.318Z,11.20
2019-05-28T02:31:28.278Z,11.10
2019-05-28T02:33:57.312Z,11.00
2019-05-28T02:36:26.136Z,10.90
2019-05-28T02:38:54.947Z,10.90
2019-05-28T02:41:23.779Z,10.90
2019-05-28T02:43:52.651Z,10.80
2019-05-28T02:46:21.475Z,10.80
2019-05-28T02:48:50.363Z,10.80
2019-05-28T02:51:19.331Z,10.70
2019-05-28T02:53:48.284Z,10.70
2019-05-28T02:56:18.682Z,10.70
2019-05-28T02:58:49.998Z,10.60
2019-05-28T03:01:21.377Z,10.60
2019-05-28T03:03:52.490Z,10.60
2019-05-28T03:06:24.278Z,10.60
2019-05-28T03:08:56.034Z,10.50
2019-05-28T03:11:24.984Z,10.50
2019-05-28T03:13:53.981Z,10.50
2019-05-28T03:16:25.907Z,10.40
2019-05-28T03:18:55.429Z,10.30
2019-05-28T03:21:26.518Z,10.30
2019-05-28T03:23:58.399Z,10.30
2019-05-28T03:26:27.266Z,10.20
2019-05-28T03:28:56.434Z,10.20
2019-05-28T03:31:25.375Z,10.20
2019-05-28T03:33:54.518Z,10.10
2019-05-28T03:36:26.186Z,10.10
2019-05-28T03:38:57.583Z,10.10
2019-05-28T03:41:26.459Z,10.10
2019-05-28T03:43:55.350Z,10.10
2019-05-28T03:46:24.160Z,10.10
2019-05-28T03:48:53.062Z,10.20
2019-05-28T03:51:21.947Z,10.20
2019-05-28T03:53:50.798Z,10.10
2019-05-28T03:56:19.667Z,10.10
2019-05-28T03:58:48.500Z,10.10
2019-05-28T04:01:17.354Z,10.10
2019-05-28T04:03:46.191Z,10.10
2019-05-28T04:06:15.062Z,10.00
2019-05-28T04:08:43.911Z,10.10
2019-05-28T04:11:12.724Z,10.10
2019-05-28T04:13:41.632Z,10.10
2019-05-28T04:16:10.443Z,10.20
2019-05-28T04:18:39.342Z,10.20
2019-05-28T04:21:08.232Z,10.30
2019-05-28T04:23:37.058Z,10.40
2019-05-28T04:26:05.979Z,10.40
2019-05-28T04:28:34.818Z,10.50
2019-05-28T04:31:03.700Z,10.60
2019-05-28T04:33:32.590Z,10.70
2019-05-28T04:36:01.485Z,10.80
2019-05-28T04:38:30.392Z,10.80
2019-05-28T04:40:59.207Z,10.90
2019-05-28T04:43:28.035Z,11.00
2019-05-28T04:45:56.882Z,11.00
2019-05-28T04:48:25.767Z,11.10
2019-05-28T04:50:54.924Z,11.20
2019-05-28T04:53:23.791Z,11.30
2019-05-28T04:55:52.865Z,11.40
2019-05-28T04:58:21.849Z,11.40
2019-05-28T05:00:50.934Z,11.60
2019-05-28T05:03:19.822Z,11.80
2019-05-28T05:05:48.777Z,11.90
2019-05-28T05:08:17.724Z,12.00
2019-05-28T05:10:46.639Z,12.10
2019-05-28T05:13:15.435Z,12.10
2019-05-28T05:15:47.134Z,12.10
2019-05-28T05:18:14.802Z,12.10
2019-05-28T05:20:43.641Z,12.10
2019-05-28T05:23:12.514Z,12.20
2019-05-28T05:25:41.371Z,12.20
2019-05-28T05:28:10.181Z,12.20
2019-05-28T05:30:39.077Z,12.30
2019-05-28T05:33:19.989Z,12.30
2019-05-28T05:35:38.587Z,12.40
2019-05-28T05:38:07.523Z,12.40
2019-05-28T05:40:36.395Z,12.40
2019-05-28T05:43:05.334Z,12.40
2019-05-28T05:45:34.236Z,12.30
2019-05-28T05:48:03.216Z,12.30
2019-05-28T05:50:32.158Z,12.40
2019-05-28T05:53:00.994Z,12.30
2019-05-28T05:55:29.959Z,12.20
2019-05-28T05:57:58.793Z,12.20
2019-05-28T06:00:27.701Z,12.30
2019-05-28T06:02:56.559Z,12.40
2019-05-28T06:05:25.466Z,12.40
2019-05-28T06:07:54.325Z,12.50
2019-05-28T06:10:23.322Z,12.50
2019-05-28T06:12:52.221Z,12.50
2019-05-28T06:15:21.267Z,12.60
2019-05-28T06:17:50.079Z,12.60
2019-05-28T06:20:19.242Z,12.60
2019-05-28T06:22:48.055Z,12.70
2019-05-28T06:25:17.597Z,12.70
2019-05-28T06:27:46.462Z,12.90
2019-05-28T06:30:15.519Z,13.00
2019-05-28T06:32:44.404Z,13.10
2019-05-28T06:35:13.675Z,13.10
2019-05-28T06:37:42.469Z,13.10
2019-05-28T06:40:11.534Z,13.20
2019-05-28T06:42:40.439Z,13.20
2019-05-28T06:45:10.283Z,13.20
2019-05-28T06:47:39.255Z,13.30
2019-05-28T06:50:09.053Z,13.60
2019-05-28T06:52:38.188Z,13.70
2019-05-28T06:55:07.170Z,14.00
2019-05-28T06:57:36.108Z,14.20
2019-05-28T07:00:06.712Z,14.60
2019-05-28T07:02:35.607Z,14.80
2019-05-28T07:05:23.728Z,14.80
2019-05-28T07:07:52.541Z,15.00
2019-05-28T07:10:23.281Z,15.40
2019-05-28T07:12:52.097Z,15.50
2019-05-28T07:15:21.046Z,15.60
2019-05-28T07:17:49.872Z,15.60
2019-05-28T07:20:18.815Z,15.60
2019-05-28T07:22:47.713Z,15.70
2019-05-28T07:25:16.720Z,15.70
2019-05-28T07:27:45.559Z,15.80
2019-05-28T07:30:14.915Z,16.10
2019-05-28T07:32:43.756Z,16.20
2019-05-28T07:35:12.713Z,16.40
2019-05-28T07:37:41.637Z,16.50
2019-05-28T07:40:11.235Z,16.60
2019-05-28T07:42:40.062Z,16.60
2019-05-28T07:45:09.082Z,16.80
2019-05-28T07:47:38.042Z,16.80
2019-05-28T07:50:07.334Z,16.90
2019-05-28T07:52:36.245Z,16.70
2019-05-28T07:55:05.323Z,16.70
2019-05-28T07:57:34.298Z,16.70
2019-05-28T08:00:05.652Z,16.50
2019-05-28T08:02:33.899Z,16.30
2019-05-28T08:05:02.859Z,16.10
2019-05-28T08:07:31.683Z,16.30
2019-05-28T08:10:00.490Z,16.40
2019-05-28T08:12:29.325Z,16.60
2019-05-28T08:14:58.272Z,16.60
2019-05-28T08:17:27.171Z,16.50
2019-05-28T08:19:55.980Z,16.50
2019-05-28T08:22:38.774Z,16.50
2019-05-28T08:24:55.335Z,16.60
2019-05-28T08:27:24.249Z,16.50
2019-05-28T08:29:53.139Z,16.50
2019-05-28T08:32:22.071Z,16.30
2019-05-28T08:35:04.912Z,16.10
2019-05-28T08:37:21.480Z,16.10
2019-05-28T08:39:50.369Z,16.10
2019-05-28T08:42:20.997Z,16.20
2019-05-28T08:44:50.099Z,16.10
2019-05-28T08:47:19.416Z,16.20
2019-05-28T08:49:48.324Z,16.30
2019-05-28T08:52:17.250Z,16.40
2019-05-28T08:54:46.102Z,16.40
2019-05-28T08:57:15.108Z,16.50
2019-05-28T08:59:43.972Z,16.70
2019-05-28T09:02:27.169Z,16.70
2019-05-28T09:04:43.469Z,16.80
2019-05-28T09:07:12.381Z,16.80
2019-05-28T09:09:41.286Z,16.80
2019-05-28T09:12:10.100Z,16.60
2019-05-28T09:14:55.157Z,16.60
2019-05-28T09:17:09.561Z,16.40
2019-05-28T09:19:38.446Z,16.40
2019-05-28T09:22:07.318Z,16.20
2019-05-28T09:24:36.365Z,16.20
2019-05-28T09:27:05.247Z,16.10
2019-05-28T09:29:34.075Z,16.10
2019-05-28T09:32:02.956Z,16.20
2019-05-28T09:34:31.851Z,16.50
2019-05-28T09:37:00.677Z,16.70
2019-05-28T09:39:29.561Z,17.00
2019-05-28T09:41:58.364Z,17.20
2019-05-28T09:44:27.258Z,17.10
2019-05-28T09:46:56.070Z,17.30
2019-05-28T09:49:25.136Z,17.10
2019-05-28T09:51:54.080Z,17.00
2019-05-28T09:54:22.978Z,17.10
2019-05-28T09:56:51.967Z,17.00
2019-05-28T09:59:20.925Z,17.00
2019-05-28T10:01:50.013Z,17.10
2019-05-28T10:04:18.837Z,17.30
2019-05-28T10:06:47.645Z,17.30
2019-05-28T10:09:16.467Z,17.30
2019-05-28T10:11:45.348Z,17.40
2019-05-28T10:14:14.177Z,17.50
2019-05-28T10:16:42.988Z,17.50
2019-05-28T10:19:11.854Z,17.60
2019-05-28T10:21:40.691Z,17.80
2019-05-28T10:24:09.490Z,18.10
2019-05-28T10:26:38.475Z,18.50
2019-05-28T10:29:07.430Z,18.70
2019-05-28T10:31:36.317Z,18.60
2019-05-28T10:34:05.270Z,18.60
2019-05-28T10:36:36.618Z,18.30
2019-05-28T10:39:07.249Z,18.10
2019-05-28T10:41:36.231Z,17.90
2019-05-28T10:44:05.357Z,17.70
2019-05-28T10:46:34.344Z,17.50
2019-05-28T10:49:03.159Z,17.40
2019-05-28T10:51:31.994Z,17.30
2019-05-28T10:54:00.783Z,17.40
2019-05-28T10:56:29.779Z,17.30
2019-05-28T10:58:58.671Z,17.20
2019-05-28T11:01:27.600Z,17.20
2019-05-28T11:03:56.534Z,17.20
2019-05-28T11:06:25.419Z,17.20
2019-05-28T11:08:54.272Z,17.20
2019-05-28T11:11:23.250Z,17.20
2019-05-28T11:13:53.660Z,17.10
2019-05-28T11:16:22.833Z,17.20
2019-05-28T11:18:51.635Z,17.20
2019-05-28T11:21:20.532Z,17.30
2019-05-28T11:23:49.488Z,17.30
2019-05-28T11:26:18.456Z,17.30
2019-05-28T11:28:47.332Z,17.30
2019-05-28T11:31:16.304Z,17.20
2019-05-28T11:33:45.257Z,17.10
2019-05-28T11:36:14.226Z,17.10
2019-05-28T11:38:43.048Z,17.20
2019-05-28T11:41:11.864Z,17.20
2019-05-28T11:43:40.749Z,17.10
2019-05-28T11:46:09.583Z,17.10
2019-05-28T11:48:38.395Z,17.10
2019-05-28T11:51:07.233Z,17.10
2019-05-28T11:53:36.950Z,17.20
2019-05-28T11:56:06.222Z,17.20
2019-05-28T11:58:35.175Z,17.20
2019-05-28T12:01:04.155Z,17.30
2019-05-28T12:03:33.064Z,17.30
2019-05-28T12:06:02.001Z,17.30
2019-05-28T12:08:30.888Z,17.30
2019-05-28T12:10:59.776Z,17.20
2019-05-28T12:13:28.621Z,17.40
2019-05-28T12:15:57.544Z,17.50
2019-05-28T12:18:26.363Z,17.40
2019-05-28T12:20:55.241Z,17.50
2019-05-28T12:23:24.127Z,17.40
2019-05-28T12:25:53.029Z,17.50
2019-05-28T12:28:36.902Z,17.50
2019-05-28T12:30:52.477Z,17.50
2019-05-28T12:33:21.481Z,17.40
2019-05-28T12:35:50.412Z,17.30
2019-05-28T12:38:19.345Z,17.30
2019-05-28T12:40:48.622Z,17.30
2019-05-28T12:43:17.856Z,17.20
2019-05-28T12:45:46.756Z,17.10
2019-05-28T12:48:15.588Z,17.10
2019-05-28T12:50:44.411Z,16.90
2019-05-28T12:53:13.225Z,16.90
2019-05-28T12:55:42.160Z,16.70
2019-05-28T12:58:11.064Z,16.70
2019-05-28T13:00:40.383Z,16.70
2019-05-28T13:03:09.295Z,16.60
2019-05-28T13:05:38.325Z,16.60
2019-05-28T13:08:10.228Z,16.70
2019-05-28T13:10:37.830Z,16.70
2019-05-28T13:13:06.743Z,16.70
2019-05-28T13:15:35.653Z,16.70
2019-05-28T13:18:04.877Z,16.80
2019-05-28T13:20:33.832Z,16.80
2019-05-28T13:23:02.745Z,16.80
2019-05-28T13:25:31.560Z,16.80
2019-05-28T13:28:00.445Z,16.60
2019-05-28T13:30:29.411Z,16.50
2019-05-28T13:32:58.359Z,16.40
2019-05-28T13:35:27.939Z,16.40
2019-05-28T13:37:56.827Z,16.40
2019-05-28T13:40:26.699Z,16.40
2019-05-28T13:42:55.591Z,16.40
2019-05-28T13:45:24.595Z,16.40
2019-05-28T13:47:53.482Z,16.50
2019-05-28T13:50:22.458Z,16.40
2019-05-28T13:52:51.276Z,16.30
2019-05-28T13:55:21.128Z,16.30
2019-05-28T13:57:50.028Z,16.30
2019-05-28T14:00:19.742Z,16.20
2019-05-28T14:02:48.648Z,16.10
2019-05-28T14:05:19.491Z,16.10
2019-05-28T14:07:48.454Z,16.10
2019-05-28T14:10:17.767Z,16.10
2019-05-28T14:12:46.705Z,16.00
2019-05-28T14:15:16.216Z,16.00
2019-05-28T14:17:45.083Z,16.00
2019-05-28T14:20:16.240Z,16.10
2019-05-28T14:22:45.505Z,16.10
2019-05-28T14:25:15.203Z,16.00
2019-05-28T14:27:44.134Z,16.00
2019-05-28T14:30:14.211Z,15.90
2019-05-28T14:32:43.116Z,15.90
2019-05-28T14:35:12.343Z,15.90
2019-05-28T14:37:41.325Z,15.90
2019-05-28T14:40:11.119Z,15.90
2019-05-28T14:42:40.014Z,15.90
2019-05-28T14:45:09.824Z,15.90
2019-05-28T14:47:38.927Z,15.90
2019-05-28T14:50:08.227Z,15.80
2019-05-28T14:52:37.235Z,15.80
2019-05-28T14:55:07.643Z,15.80
2019-05-28T14:57:36.554Z,15.80
2019-05-28T15:00:06.496Z,15.80
2019-05-28T15:02:35.517Z,15.90
2019-05-28T15:05:05.838Z,15.90
2019-05-28T15:07:34.648Z,15.90
2019-05-28T15:10:04.460Z,15.80
2019-05-28T15:12:33.270Z,15.80
2019-05-28T15:15:02.212Z,15.80
2019-05-28T15:17:31.048Z,15.90
2019-05-28T15:19:59.869Z,15.90
2019-05-28T15:22:28.833Z,15.90
2019-05-28T15:24:57.658Z,15.90
2019-05-28T15:27:26.945Z,15.90
2019-05-28T15:29:55.879Z,15.90
2019-05-28T15:32:24.806Z,15.80
2019-05-28T15:34:53.780Z,15.80
2019-05-28T15:37:22.679Z,15.90
2019-05-28T15:39:51.582Z,15.90
2019-05-28T15:42:20.915Z,15.90
2019-05-28T15:44:49.979Z,15.80
2019-05-28T15:47:18.869Z,15.90
2019-05-28T15:49:47.771Z,15.90
2019-05-28T15:52:16.570Z,15.80
2019-05-28T15:54:45.582Z,15.70
2019-05-28T15:57:15.637Z,15.60
2019-05-28T16:00:06.558Z,15.60
2019-05-28T16:02:35.969Z,15.40
2019-05-28T16:05:05.299Z,15.30
2019-05-28T16:07:34.116Z,15.30
2019-05-28T16:10:03.112Z,15.30
2019-05-28T16:12:32.141Z,15.30
2019-05-28T16:15:01.064Z,15.30
2019-05-28T16:17:29.872Z,15.30
2019-05-28T16:19:58.810Z,15.40
2019-05-28T16:22:27.662Z,15.30
2019-05-28T16:24:56.614Z,15.40
2019-05-28T16:27:25.539Z,15.40
2019-05-28T16:29:54.350Z,15.40
2019-05-28T16:32:27.923Z,15.40
2019-05-28T16:34:53.808Z,15.30
2019-05-28T16:37:23.166Z,15.30
2019-05-28T16:39:51.962Z,15.30
2019-05-28T16:42:20.865Z,15.30
2019-05-28T16:44:49.730Z,15.30
2019-05-28T16:47:18.923Z,15.40
2019-05-28T16:49:47.925Z,15.40
2019-05-28T16:52:16.821Z,15.40
2019-05-28T16:54:45.783Z,15.40
2019-05-28T16:57:14.719Z,15.30
2019-05-28T16:59:43.669Z,15.30
2019-05-28T17:02:12.612Z,15.20
2019-05-28T17:04:41.512Z,15.10
2019-05-28T17:07:14.397Z,15.00
2019-05-28T17:09:43.290Z,14.90
2019-05-28T17:12:12.304Z,14.80
2019-05-28T17:14:41.179Z,14.70
2019-05-28T17:17:13.276Z,14.70
2019-05-28T17:19:44.785Z,14.60
2019-05-28T17:22:12.950Z,14.50
2019-05-28T17:24:41.843Z,14.50
2019-05-28T17:27:11.960Z,14.40
2019-05-28T17:29:40.955Z,14.30
2019-05-28T17:32:09.888Z,14.30
2019-05-28T17:34:38.790Z,14.30
2019-05-28T17:37:07.725Z,14.20
2019-05-28T17:39:36.804Z,14.10
2019-05-28T17:42:05.772Z,14.10
2019-05-28T17:44:34.754Z,14.00
2019-05-28T17:47:03.748Z,14.00
2019-05-28T17:49:32.798Z,14.00
2019-05-28T17:52:01.671Z,14.00
2019-05-28T17:54:30.644Z,14.00
2019-05-28T17:56:59.589Z,14.00
2019-05-28T17:59:28.532Z,14.00
2019-05-28T18:01:57.446Z,14.00
2019-05-28T18:04:26.510Z,13.90
2019-05-28T18:06:55.443Z,13.90
2019-05-28T18:09:24.367Z,13.80
2019-05-28T18:11:53.311Z,13.70
2019-05-28T18:14:23.861Z,13.70
2019-05-28T18:16:53.357Z,13.70
2019-05-28T18:19:22.351Z,13.60
2019-05-28T18:21:51.349Z,13.50
2019-05-28T18:24:21.032Z,13.50
2019-05-28T18:26:50.110Z,13.40
2019-05-28T18:29:19.367Z,13.50
2019-05-28T18:31:48.339Z,13.40
2019-05-28T18:34:17.376Z,13.40
2019-05-28T18:36:46.312Z,13.30
2019-05-28T18:39:15.175Z,13.30
2019-05-28T18:41:44.206Z,13.30
2019-05-28T18:44:13.252Z,13.30
2019-05-28T18:46:42.315Z,13.20
2019-05-28T18:49:11.264Z,13.20
2019-05-28T18:51:40.187Z,13.20
2019-05-28T18:54:09.155Z,13.10
2019-05-28T18:56:38.050Z,13.10
2019-05-28T18:59:08.251Z,13.10
2019-05-28T19:01:37.259Z,13.00
2019-05-28T19:04:06.317Z,13.00
2019-05-28T19:06:35.427Z,12.90
2019-05-28T19:09:11.184Z,12.80
2019-05-28T19:11:39.175Z,12.80
2019-05-28T19:14:08.107Z,12.70
2019-05-28T19:16:37.049Z,12.60
2019-05-28T19:19:06.035Z,12.60
2019-05-28T19:21:35.723Z,12.60
2019-05-28T19:24:04.891Z,12.50
2019-05-28T19:26:33.951Z,12.50
2019-05-28T19:29:02.855Z,12.50
2019-05-28T19:31:32.553Z,12.40
2019-05-28T19:34:01.695Z,12.40
2019-05-28T19:36:31.302Z,12.30
2019-05-28T19:39:01.775Z,12.30
2019-05-28T19:41:30.656Z,12.30
2019-05-28T19:43:59.624Z,12.20
2019-05-28T19:46:28.754Z,12.20
2019-05-28T19:48:57.704Z,12.20
2019-05-28T19:51:26.719Z,12.10
2019-05-28T19:53:55.867Z,12.00
2019-05-28T19:56:25.000Z,12.00
2019-05-28T19:58:54.179Z,12.00
2019-05-28T20:01:23.447Z,11.90
2019-05-28T20:03:52.509Z,11.90
2019-05-28T20:06:21.664Z,11.90
2019-05-28T20:08:50.476Z,11.80
2019-05-28T20:11:19.432Z,11.80
2019-05-28T20:13:48.262Z,11.70
2019-05-28T20:16:17.115Z,11.70
2019-05-28T20:18:47.186Z,11.70
2019-05-28T20:21:16.338Z,11.60
2019-05-28T20:23:45.804Z,11.70
2019-05-28T20:26:14.947Z,11.60
2019-05-28T20:28:43.845Z,11.60
2019-05-28T20:31:12.860Z,11.60
2019-05-28T20:33:41.768Z,11.50
2019-05-28T20:36:10.693Z,11.60
2019-05-28T20:38:39.598Z,11.50
2019-05-28T20:41:08.428Z,11.50
2019-05-28T20:43:37.319Z,11.50
2019-05-28T20:46:06.651Z,11.40
2019-05-28T20:48:35.479Z,11.40
2019-05-28T20:51:13.255Z,11.40
2019-05-28T20:53:36.502Z,11.40
2019-05-28T20:56:05.560Z,11.30
2019-05-28T20:58:40.103Z,11.30
2019-05-28T21:01:05.011Z,11.30
2019-05-28T21:03:33.836Z,11.30
2019-05-28T21:06:02.723Z,11.30
2019-05-28T21:08:31.634Z,11.20
2019-05-28T21:11:00.501Z,11.20
2019-05-28T21:13:29.327Z,11.10
2019-05-28T21:15:58.989Z,11.10
2019-05-28T21:18:27.934Z,11.10
2019-05-28T21:20:57.587Z,11.00
2019-05-28T21:23:26.482Z,11.00
2019-05-28T21:25:56.261Z,11.00
2019-05-28T21:28:25.959Z,10.90
2019-05-28T21:30:55.055Z,10.90
2019-05-28T21:33:23.960Z,10.90
2019-05-28T21:35:52.996Z,10.80
2019-05-28T21:38:22.048Z,10.80
2019-05-28T21:40:51.510Z,10.70
2019-05-28T21:43:20.628Z,10.70
2019-05-28T21:45:49.502Z,10.70
2019-05-28T21:48:18.323Z,10.60
2019-05-28T21:50:47.210Z,10.50
2019-05-28T21:53:16.188Z,10.50
2019-05-28T21:55:45.511Z,10.40
2019-05-28T21:58:14.336Z,10.40
2019-05-28T22:00:49.656Z,10.40
2019-05-28T22:03:18.624Z,10.40
2019-05-28T22:05:47.506Z,10.30
2019-05-28T22:08:16.472Z,10.40
2019-05-28T22:10:45.364Z,10.30
2019-05-28T22:13:21.889Z,10.30
2019-05-28T22:15:44.801Z,10.30
2019-05-28T22:18:13.755Z,10.20
2019-05-28T22:20:42.569Z,10.20
2019-05-28T22:23:11.373Z,10.00
2019-05-28T22:25:40.203Z,10.00
2019-05-28T22:28:09.069Z,9.90
2019-05-28T22:30:38.019Z,9.90
2019-05-28T22:33:08.240Z,9.80
2019-05-28T22:35:37.312Z,9.80
2019-05-28T22:38:07.428Z,9.70
2019-05-28T22:40:36.565Z,9.70
2019-05-28T22:43:06.822Z,9.60
2019-05-28T22:45:41.745Z,9.60
2019-05-28T22:48:14.816Z,9.50
2019-05-28T22:50:37.674Z,9.50
2019-05-28T22:53:25.714Z,9.50
2019-05-28T22:55:54.542Z,9.40
2019-05-28T22:58:23.442Z,9.40
2019-05-28T23:00:52.330Z,9.30
2019-05-28T23:03:21.198Z,9.20
2019-05-28T23:05:50.023Z,9.10
2019-05-28T23:08:18.811Z,9.10
2019-05-28T23:10:47.624Z,9.00
2019-05-28T23:13:16.428Z,8.90
2019-05-28T23:15:45.325Z,8.90
2019-05-28T23:18:14.405Z,8.80
2019-05-28T23:20:43.223Z,8.80
2019-05-28T23:23:12.021Z,8.70
2019-05-28T23:25:40.831Z,8.60
2019-05-28T23:28:09.876Z,8.60
2019-05-28T23:30:38.813Z,8.60
2019-05-28T23:33:10.453Z,8.50
2019-05-28T23:35:38.242Z,8.50
2019-05-28T23:38:07.051Z,8.50
2019-05-28T23:40:35.929Z,8.50
2019-05-28T23:43:05.356Z,8.40
2019-05-28T23:45:34.384Z,8.40
2019-05-28T23:48:07.390Z,8.30
2019-05-28T23:50:33.755Z,8.30
2019-05-28T23:53:02.631Z,8.30
2019-05-28T23:55:31.457Z,8.20
2019-05-28T23:58:00.274Z,8.20
